createdAt,value
2019-02-02T00:02:24.624Z,97667.97
2019-02-02T00:06:32.706Z,97671.59
2019-02-02T00:10:39.670Z,97669.45
2019-02-02T00:14:46.724Z,97675.00
2019-02-02T00:18:53.594Z,97673.58
2019-02-02T00:23:00.520Z,97694.17
2019-02-02T00:27:08.530Z,97708.03
2019-02-02T00:31:15.329Z,97719.31
2019-02-02T00:35:22.248Z,97714.48
2019-02-02T00:39:29.161Z,97704.73
2019-02-02T00:43:38.420Z,97711.10
2019-02-02T00:47:44.647Z,97714.39
2019-02-02T00:51:51.640Z,97717.48
2019-02-02T00:56:02.028Z,97725.67
2019-02-02T01:00:12.846Z,97726.45
2019-02-02T01:04:19.792Z,97707.45
2019-02-02T01:08:26.753Z,97710.63
2019-02-02T01:12:33.763Z,97708.34
2019-02-02T01:16:42.097Z,97704.75
2019-02-02T01:20:49.173Z,97698.08
2019-02-02T01:24:56.047Z,97713.95
2019-02-02T01:29:02.924Z,97713.44
2019-02-02T01:33:09.767Z,97713.17
2019-02-02T01:37:16.547Z,97722.11
2019-02-02T01:41:23.467Z,97720.19
2019-02-02T01:45:30.440Z,97723.70
2019-02-02T01:49:37.405Z,97720.27
2019-02-02T01:53:44.312Z,97717.20
2019-02-02T01:57:51.488Z,97729.63
2019-02-02T02:01:58.401Z,97728.48
2019-02-02T02:06:05.397Z,97716.05
2019-02-02T02:10:14.016Z,97704.07
2019-02-02T02:14:21.023Z,97706.72
2019-02-02T02:18:29.569Z,97707.96
2019-02-02T02:22:41.012Z,97734.53
2019-02-02T02:26:44.951Z,97742.34
2019-02-02T02:30:51.765Z,97744.48
2019-02-02T02:34:58.611Z,97744.31
2019-02-02T02:39:08.183Z,97734.02
2019-02-02T02:43:15.075Z,97724.30
2019-02-02T02:47:22.113Z,97726.85
2019-02-02T02:51:28.934Z,97713.20
2019-02-02T02:55:35.833Z,97703.98
2019-02-02T02:59:42.789Z,97698.45
2019-02-02T03:03:49.562Z,97708.51
2019-02-02T03:07:56.417Z,97706.06
2019-02-02T03:12:03.359Z,97711.03
2019-02-02T03:16:10.212Z,97715.57
2019-02-02T03:20:17.915Z,97718.66
2019-02-02T03:24:24.801Z,97720.95
2019-02-02T03:28:31.632Z,97722.55
2019-02-02T03:32:38.579Z,97716.48
2019-02-02T03:36:45.426Z,97724.01
2019-02-02T03:40:52.302Z,97717.89
2019-02-02T03:44:59.145Z,97709.67
2019-02-02T03:49:07.035Z,97719.05
2019-02-02T03:53:13.930Z,97714.80
2019-02-02T03:57:20.798Z,97711.99
2019-02-02T04:01:30.012Z,97702.07
2019-02-02T04:05:36.301Z,97703.62
2019-02-02T04:09:53.590Z,97694.81
2019-02-02T04:14:07.293Z,97702.07
2019-02-02T04:18:20.647Z,97683.84
2019-02-02T04:22:51.024Z,97692.87
2019-02-02T04:27:03.624Z,97711.38
2019-02-02T04:31:12.597Z,97737.38
2019-02-02T04:35:19.381Z,97770.53
2019-02-02T04:39:32.238Z,97783.39
2019-02-02T04:43:40.853Z,97781.73
2019-02-02T04:47:48.147Z,97789.91
2019-02-02T04:51:55.130Z,97788.17
2019-02-02T04:56:01.968Z,97778.22
2019-02-02T05:00:19.718Z,97775.63
2019-02-02T05:04:26.581Z,97778.10
2019-02-02T05:08:33.591Z,97777.02
2019-02-02T05:12:40.560Z,97777.77
2019-02-02T05:16:47.470Z,97782.84
2019-02-02T05:20:54.330Z,97790.27
2019-02-02T05:25:01.193Z,97797.88
2019-02-02T05:29:09.142Z,97815.84
2019-02-02T05:33:15.987Z,97808.94
2019-02-02T05:37:22.804Z,97816.06
2019-02-02T05:41:29.657Z,97803.85
2019-02-02T05:45:36.624Z,97815.64
2019-02-02T05:49:43.564Z,97795.06
2019-02-02T05:53:50.358Z,97779.62
2019-02-02T05:57:57.157Z,97788.32
2019-02-02T06:02:04.081Z,97803.02
2019-02-02T06:06:10.917Z,97816.34
2019-02-02T06:10:18.177Z,97824.66
2019-02-02T06:14:25.548Z,97818.25
2019-02-02T06:18:32.407Z,97832.27
2019-02-02T06:22:39.304Z,97843.09
2019-02-02T06:26:46.144Z,97849.61
2019-02-02T06:30:53.159Z,97853.67
2019-02-02T06:35:00.195Z,97838.86
2019-02-02T06:39:09.460Z,97826.83
2019-02-02T06:43:16.523Z,97829.45
2019-02-02T06:47:23.375Z,97839.41
2019-02-02T06:51:30.256Z,97845.78
2019-02-02T06:55:37.194Z,97865.82
2019-02-02T06:59:44.202Z,97876.26
2019-02-02T07:03:51.209Z,97876.13
2019-02-02T07:07:58.200Z,97878.11
2019-02-02T07:12:05.370Z,97887.95
2019-02-02T07:16:12.532Z,97907.19
2019-02-02T07:20:19.646Z,97914.52
2019-02-02T07:24:26.704Z,97929.92
2019-02-02T07:28:33.611Z,97937.13
2019-02-02T07:32:40.465Z,97944.70
2019-02-02T07:36:47.386Z,97938.98
2019-02-02T07:40:54.414Z,97947.92
2019-02-02T07:45:01.415Z,97947.01
2019-02-02T07:49:08.350Z,97945.45
2019-02-02T07:53:15.270Z,97953.14
2019-02-02T07:57:22.262Z,97960.81
2019-02-02T08:01:29.194Z,97960.78
2019-02-02T08:05:36.185Z,97960.43
2019-02-02T15:33:38.998Z,98463.02
